sensor_id;sensor_type;location;lat;lon;timestamp;temperature;humidity
46490;DHT22;32204;49.160;8.580;2023-08-24T00:01:04;22.40;97.20
46490;DHT22;32204;49.160;8.580;2023-08-24T00:03:29;22.40;1.00
46490;DHT22;32204;49.160;8.580;2023-08-24T00:05:55;22.30;1.00
46490;DHT22;32204;49.160;8.580;2023-08-24T00:08:20;22.20;14.90
46490;DHT22;32204;49.160;8.580;2023-08-24T00:10:46;22.00;99.90
46490;DHT22;32204;49.160;8.580;2023-08-24T00:13:12;22.00;99.90
46490;DHT22;32204;49.160;8.580;2023-08-24T00:15:38;21.90;99.90
46490;DHT22;32204;49.160;8.580;2023-08-24T00:18:04;21.90;99.90
46490;DHT22;32204;49.160;8.580;2023-08-24T00:20:30;21.80;99.90
46490;DHT22;32204;49.160;8.580;2023-08-24T00:22:58;21.80;99.90
46490;DHT22;32204;49.160;8.580;2023-08-24T00:25:24;21.70;99.90
46490;DHT22;32204;49.160;8.580;2023-08-24T00:27:49;21.70;99.90
46490;DHT22;32204;49.160;8.580;2023-08-24T00:30:15;21.70;1.00
46490;DHT22;32204;49.160;8.580;2023-08-24T00:32:40;21.60;1.00
46490;DHT22;32204;49.160;8.580;2023-08-24T00:35:06;21.50;1.00
46490;DHT22;32204;49.160;8.580;2023-08-24T00:37:32;21.50;90.40
46490;DHT22;32204;49.160;8.580;2023-08-24T00:40:01;21.40;99.90
46490;DHT22;32204;49.160;8.580;2023-08-24T00:42:36;21.30;85.20
46490;DHT22;32204;49.160;8.580;2023-08-24T00:45:02;21.30;99.90
46490;DHT22;32204;49.160;8.580;2023-08-24T00:47:28;21.20;88.80
46490;DHT22;32204;49.160;8.580;2023-08-24T00:49:54;21.20;99.90
46490;DHT22;32204;49.160;8.580;2023-08-24T00:52:20;21.20;99.90
46490;DHT22;32204;49.160;8.580;2023-08-24T00:54:45;21.10;99.90
46490;DHT22;32204;49.160;8.580;2023-08-24T00:57:12;21.20;99.90
46490;DHT22;32204;49.160;8.580;2023-08-24T00:59:38;21.20;99.90
46490;DHT22;32204;49.160;8.580;2023-08-24T01:02:04;21.20;99.90
46490;DHT22;32204;49.160;8.580;2023-08-24T01:04:29;21.20;99.90
46490;DHT22;32204;49.160;8.580;2023-08-24T01:06:55;21.40;28.50
46490;DHT22;32204;49.160;8.580;2023-08-24T01:09:20;21.60;1.00
46490;DHT22;32204;49.160;8.580;2023-08-24T01:17:01;21.80;1.00
46490;DHT22;32204;49.160;8.580;2023-08-24T01:27:36;21.80;99.90
46490;DHT22;32204;49.160;8.580;2023-08-24T01:30:02;21.90;1.00
46490;DHT22;32204;49.160;8.580;2023-08-24T01:32:35;21.90;1.00
46490;DHT22;32204;49.160;8.580;2023-08-24T01:35:06;21.90;1.00
46490;DHT22;32204;49.160;8.580;2023-08-24T01:37:32;21.90;6.00
46490;DHT22;32204;49.160;8.580;2023-08-24T01:45:18;21.90;99.90
46490;DHT22;32204;49.160;8.580;2023-08-24T01:47:45;22.00;1.00
46490;DHT22;32204;49.160;8.580;2023-08-24T01:50:10;22.00;1.00
46490;DHT22;32204;49.160;8.580;2023-08-24T01:52:36;22.10;1.00
46490;DHT22;32204;49.160;8.580;2023-08-24T01:55:02;22.10;1.00
46490;DHT22;32204;49.160;8.580;2023-08-24T01:57:28;22.00;1.00
46490;DHT22;32204;49.160;8.580;2023-08-24T01:59:53;21.90;1.00
46490;DHT22;32204;49.160;8.580;2023-08-24T02:02:20;21.80;1.00
46490;DHT22;32204;49.160;8.580;2023-08-24T02:04:45;21.50;99.90
46490;DHT22;32204;49.160;8.580;2023-08-24T02:07:11;21.30;99.90
46490;DHT22;32204;49.160;8.580;2023-08-24T02:09:36;21.10;1.00
46490;DHT22;32204;49.160;8.580;2023-08-24T02:12:02;20.90;67.00
46490;DHT22;32204;49.160;8.580;2023-08-24T02:14:27;20.90;99.90
46490;DHT22;32204;49.160;8.580;2023-08-24T02:16:53;20.80;99.90
46490;DHT22;32204;49.160;8.580;2023-08-24T02:19:19;20.90;99.90
46490;DHT22;32204;49.160;8.580;2023-08-24T02:21:44;20.90;1.00
46490;DHT22;32204;49.160;8.580;2023-08-24T02:24:10;20.90;1.00
46490;DHT22;32204;49.160;8.580;2023-08-24T02:26:35;20.90;1.00
46490;DHT22;32204;49.160;8.580;2023-08-24T02:29:01;20.90;1.00
46490;DHT22;32204;49.160;8.580;2023-08-24T02:31:26;21.00;1.00
46490;DHT22;32204;49.160;8.580;2023-08-24T02:33:52;21.00;1.00
46490;DHT22;32204;49.160;8.580;2023-08-24T02:36:17;21.00;99.90
46490;DHT22;32204;49.160;8.580;2023-08-24T02:38:43;21.00;99.90
46490;DHT22;32204;49.160;8.580;2023-08-24T02:41:08;20.90;1.00
46490;DHT22;32204;49.160;8.580;2023-08-24T02:43:36;21.00;1.00
46490;DHT22;32204;49.160;8.580;2023-08-24T02:46:06;21.10;1.00
46490;DHT22;32204;49.160;8.580;2023-08-24T02:48:32;21.20;1.00
46490;DHT22;32204;49.160;8.580;2023-08-24T02:50:58;21.30;99.90
46490;DHT22;32204;49.160;8.580;2023-08-24T02:53:24;21.40;99.90
46490;DHT22;32204;49.160;8.580;2023-08-24T02:55:49;21.20;99.90
46490;DHT22;32204;49.160;8.580;2023-08-24T02:58:15;21.00;1.00
46490;DHT22;32204;49.160;8.580;2023-08-24T03:00:40;20.90;1.00
46490;DHT22;32204;49.160;8.580;2023-08-24T03:03:06;20.80;1.00
46490;DHT22;32204;49.160;8.580;2023-08-24T03:05:31;20.80;99.90
46490;DHT22;32204;49.160;8.580;2023-08-24T03:07:58;20.70;82.50
46490;DHT22;32204;49.160;8.580;2023-08-24T03:10:23;20.70;1.00
46490;DHT22;32204;49.160;8.580;2023-08-24T03:12:49;20.60;99.90
46490;DHT22;32204;49.160;8.580;2023-08-24T03:15:14;20.50;99.90
46490;DHT22;32204;49.160;8.580;2023-08-24T03:17:40;20.40;99.90
46490;DHT22;32204;49.160;8.580;2023-08-24T03:20:05;20.30;1.00
46490;DHT22;32204;49.160;8.580;2023-08-24T03:22:31;20.40;1.00
46490;DHT22;32204;49.160;8.580;2023-08-24T03:24:56;20.40;1.00
46490;DHT22;32204;49.160;8.580;2023-08-24T03:27:22;20.40;1.00
46490;DHT22;32204;49.160;8.580;2023-08-24T03:29:47;20.40;1.00
46490;DHT22;32204;49.160;8.580;2023-08-24T03:32:13;20.40;1.00
46490;DHT22;32204;49.160;8.580;2023-08-24T03:34:38;20.40;99.90
46490;DHT22;32204;49.160;8.580;2023-08-24T03:37:05;20.40;99.90
46490;DHT22;32204;49.160;8.580;2023-08-24T03:39:30;20.30;1.00
46490;DHT22;32204;49.160;8.580;2023-08-24T03:41:56;20.30;1.00
46490;DHT22;32204;49.160;8.580;2023-08-24T03:44:22;20.30;1.00
46490;DHT22;32204;49.160;8.580;2023-08-24T03:46:47;20.30;1.00
46490;DHT22;32204;49.160;8.580;2023-08-24T03:49:13;20.20;99.90
46490;DHT22;32204;49.160;8.580;2023-08-24T03:51:38;20.20;99.90
46490;DHT22;32204;49.160;8.580;2023-08-24T03:54:04;20.20;99.90
46490;DHT22;32204;49.160;8.580;2023-08-24T03:56:30;20.20;99.90
46490;DHT22;32204;49.160;8.580;2023-08-24T03:58:56;20.20;99.90
46490;DHT22;32204;49.160;8.580;2023-08-24T04:01:21;20.20;99.90
46490;DHT22;32204;49.160;8.580;2023-08-24T04:03:47;20.30;99.90
46490;DHT22;32204;49.160;8.580;2023-08-24T04:06:13;20.30;1.00
46490;DHT22;32204;49.160;8.580;2023-08-24T04:08:38;20.30;1.00
46490;DHT22;32204;49.160;8.580;2023-08-24T04:11:04;20.30;1.00
46490;DHT22;32204;49.160;8.580;2023-08-24T04:13:29;20.30;1.00
46490;DHT22;32204;49.160;8.580;2023-08-24T04:15:55;20.30;1.00
46490;DHT22;32204;49.160;8.580;2023-08-24T04:18:20;20.30;99.90
46490;DHT22;32204;49.160;8.580;2023-08-24T04:20:46;20.30;99.90
46490;DHT22;32204;49.160;8.580;2023-08-24T04:23:13;20.30;99.90
46490;DHT22;32204;49.160;8.580;2023-08-24T04:25:41;20.30;99.90
46490;DHT22;32204;49.160;8.580;2023-08-24T04:28:08;20.30;99.90
46490;DHT22;32204;49.160;8.580;2023-08-24T04:30:34;20.50;99.90
46490;DHT22;32204;49.160;8.580;2023-08-24T04:32:59;20.60;91.00
46490;DHT22;32204;49.160;8.580;2023-08-24T04:35:25;20.70;1.00
46490;DHT22;32204;49.160;8.580;2023-08-24T04:37:50;20.80;99.90
46490;DHT22;32204;49.160;8.580;2023-08-24T04:40:16;20.80;99.90
46490;DHT22;32204;49.160;8.580;2023-08-24T04:42:41;20.90;99.90
46490;DHT22;32204;49.160;8.580;2023-08-24T04:45:07;21.00;99.90
46490;DHT22;32204;49.160;8.580;2023-08-24T04:47:32;21.00;90.80
46490;DHT22;32204;49.160;8.580;2023-08-24T04:49:58;21.10;99.90
46490;DHT22;32204;49.160;8.580;2023-08-24T04:52:23;21.20;1.00
46490;DHT22;32204;49.160;8.580;2023-08-24T04:54:49;21.20;99.90
46490;DHT22;32204;49.160;8.580;2023-08-24T04:57:16;21.20;1.00
46490;DHT22;32204;49.160;8.580;2023-08-24T04:59:42;21.20;99.90
46490;DHT22;32204;49.160;8.580;2023-08-24T05:02:07;21.10;99.90
46490;DHT22;32204;49.160;8.580;2023-08-24T05:04:33;21.00;99.90
46490;DHT22;32204;49.160;8.580;2023-08-24T05:06:58;21.00;1.00
46490;DHT22;32204;49.160;8.580;2023-08-24T05:09:24;20.90;1.00
46490;DHT22;32204;49.160;8.580;2023-08-24T05:11:49;20.90;1.00
46490;DHT22;32204;49.160;8.580;2023-08-24T05:14:15;20.90;1.00
46490;DHT22;32204;49.160;8.580;2023-08-24T05:16:40;20.80;39.20
46490;DHT22;32204;49.160;8.580;2023-08-24T05:19:06;20.80;1.00
46490;DHT22;32204;49.160;8.580;2023-08-24T05:21:31;20.80;24.70
46490;DHT22;32204;49.160;8.580;2023-08-24T05:23:57;20.90;1.00
46490;DHT22;32204;49.160;8.580;2023-08-24T05:26:22;21.10;1.00
46490;DHT22;32204;49.160;8.580;2023-08-24T05:28:49;21.20;99.90
46490;DHT22;32204;49.160;8.580;2023-08-24T05:31:15;21.70;99.90
46490;DHT22;32204;49.160;8.580;2023-08-24T05:33:40;22.40;1.00
46490;DHT22;32204;49.160;8.580;2023-08-24T05:36:06;23.20;99.90
46490;DHT22;32204;49.160;8.580;2023-08-24T05:38:31;23.40;99.90
46490;DHT22;32204;49.160;8.580;2023-08-24T05:40:57;23.50;93.40
46490;DHT22;32204;49.160;8.580;2023-08-24T05:43:22;23.90;21.80
46490;DHT22;32204;49.160;8.580;2023-08-24T05:45:48;24.30;1.00
46490;DHT22;32204;49.160;8.580;2023-08-24T05:48:14;24.30;1.00
46490;DHT22;32204;49.160;8.580;2023-08-24T05:50:43;24.20;1.00
46490;DHT22;32204;49.160;8.580;2023-08-24T05:53:09;24.10;1.00
46490;DHT22;32204;49.160;8.580;2023-08-24T05:55:34;23.70;1.00
46490;DHT22;32204;49.160;8.580;2023-08-24T05:58:00;23.50;1.00
46490;DHT22;32204;49.160;8.580;2023-08-24T06:00:25;23.20;23.00
46490;DHT22;32204;49.160;8.580;2023-08-24T06:02:51;22.80;99.90
46490;DHT22;32204;49.160;8.580;2023-08-24T06:05:16;22.50;99.90
46490;DHT22;32204;49.160;8.580;2023-08-24T06:07:43;22.20;99.90
46490;DHT22;32204;49.160;8.580;2023-08-24T06:10:09;21.90;99.90
46490;DHT22;32204;49.160;8.580;2023-08-24T06:12:35;21.80;99.90
46490;DHT22;32204;49.160;8.580;2023-08-24T06:15:00;21.80;99.90
46490;DHT22;32204;49.160;8.580;2023-08-24T06:17:29;21.70;99.90
46490;DHT22;32204;49.160;8.580;2023-08-24T06:19:54;21.70;99.90
46490;DHT22;32204;49.160;8.580;2023-08-24T06:22:20;21.70;99.90
46490;DHT22;32204;49.160;8.580;2023-08-24T06:24:45;21.80;99.90
46490;DHT22;32204;49.160;8.580;2023-08-24T06:27:10;22.00;99.90
46490;DHT22;32204;49.160;8.580;2023-08-24T06:29:36;22.00;99.90
46490;DHT22;32204;49.160;8.580;2023-08-24T06:32:01;22.10;85.20
46490;DHT22;32204;49.160;8.580;2023-08-24T06:34:27;22.20;82.90
46490;DHT22;32204;49.160;8.580;2023-08-24T06:36:53;22.20;94.30
46490;DHT22;32204;49.160;8.580;2023-08-24T06:39:18;22.20;99.90
46490;DHT22;32204;49.160;8.580;2023-08-24T06:41:44;22.20;99.90
46490;DHT22;32204;49.160;8.580;2023-08-24T06:44:10;22.10;99.90
46490;DHT22;32204;49.160;8.580;2023-08-24T06:46:35;22.30;99.90
46490;DHT22;32204;49.160;8.580;2023-08-24T06:49:01;22.40;99.90
46490;DHT22;32204;49.160;8.580;2023-08-24T06:51:26;22.40;99.90
46490;DHT22;32204;49.160;8.580;2023-08-24T06:53:52;22.30;99.90
46490;DHT22;32204;49.160;8.580;2023-08-24T06:56:17;22.30;99.90
46490;DHT22;32204;49.160;8.580;2023-08-24T06:58:44;22.60;99.90
46490;DHT22;32204;49.160;8.580;2023-08-24T07:01:10;22.60;99.90
46490;DHT22;32204;49.160;8.580;2023-08-24T07:03:36;22.70;99.90
46490;DHT22;32204;49.160;8.580;2023-08-24T07:06:02;22.70;99.90
46490;DHT22;32204;49.160;8.580;2023-08-24T07:08:28;22.60;99.90
46490;DHT22;32204;49.160;8.580;2023-08-24T07:10:53;22.60;99.90
46490;DHT22;32204;49.160;8.580;2023-08-24T07:13:18;22.70;99.90
46490;DHT22;32204;49.160;8.580;2023-08-24T07:15:44;23.00;99.90
46490;DHT22;32204;49.160;8.580;2023-08-24T07:18:10;23.40;99.90
46490;DHT22;32204;49.160;8.580;2023-08-24T07:20:36;23.70;99.90
46490;DHT22;32204;49.160;8.580;2023-08-24T07:23:02;23.80;1.00
46490;DHT22;32204;49.160;8.580;2023-08-24T07:25:27;23.80;1.00
46490;DHT22;32204;49.160;8.580;2023-08-24T07:27:53;23.80;1.00
46490;DHT22;32204;49.160;8.580;2023-08-24T07:30:26;23.80;1.00
46490;DHT22;32204;49.160;8.580;2023-08-24T07:32:54;24.00;1.00
46490;DHT22;32204;49.160;8.580;2023-08-24T07:35:20;24.20;1.00
46490;DHT22;32204;49.160;8.580;2023-08-24T07:37:49;24.30;1.00
46490;DHT22;32204;49.160;8.580;2023-08-24T07:40:14;24.80;1.00
46490;DHT22;32204;49.160;8.580;2023-08-24T07:42:47;25.60;99.90
46490;DHT22;32204;49.160;8.580;2023-08-24T07:45:13;26.00;99.90
46490;DHT22;32204;49.160;8.580;2023-08-24T07:47:40;26.00;99.90
46490;DHT22;32204;49.160;8.580;2023-08-24T07:50:07;26.00;99.90
46490;DHT22;32204;49.160;8.580;2023-08-24T07:52:32;25.80;99.90
46490;DHT22;32204;49.160;8.580;2023-08-24T07:54:58;25.80;99.90
46490;DHT22;32204;49.160;8.580;2023-08-24T07:57:26;26.00;99.90
46490;DHT22;32204;49.160;8.580;2023-08-24T07:59:52;26.10;99.90
46490;DHT22;32204;49.160;8.580;2023-08-24T08:02:18;25.90;99.90
46490;DHT22;32204;49.160;8.580;2023-08-24T08:04:43;26.00;99.90
46490;DHT22;32204;49.160;8.580;2023-08-24T08:07:09;26.10;99.90
46490;DHT22;32204;49.160;8.580;2023-08-24T08:09:35;26.00;99.90
46490;DHT22;32204;49.160;8.580;2023-08-24T08:12:01;26.10;99.90
46490;DHT22;32204;49.160;8.580;2023-08-24T08:14:26;26.10;99.90
46490;DHT22;32204;49.160;8.580;2023-08-24T08:16:52;26.00;99.90
46490;DHT22;32204;49.160;8.580;2023-08-24T08:19:17;26.20;99.90
46490;DHT22;32204;49.160;8.580;2023-08-24T08:21:44;26.50;99.90
46490;DHT22;32204;49.160;8.580;2023-08-24T08:24:10;26.60;99.90
46490;DHT22;32204;49.160;8.580;2023-08-24T08:26:36;26.80;99.90
46490;DHT22;32204;49.160;8.580;2023-08-24T08:29:01;26.70;99.90
46490;DHT22;32204;49.160;8.580;2023-08-24T08:31:27;26.60;99.90
46490;DHT22;32204;49.160;8.580;2023-08-24T08:33:52;26.80;99.90
46490;DHT22;32204;49.160;8.580;2023-08-24T08:36:18;26.70;99.90
46490;DHT22;32204;49.160;8.580;2023-08-24T08:38:43;26.60;99.90
46490;DHT22;32204;49.160;8.580;2023-08-24T08:41:09;26.60;99.90
46490;DHT22;32204;49.160;8.580;2023-08-24T08:43:34;26.50;99.90
46490;DHT22;32204;49.160;8.580;2023-08-24T08:46:00;26.50;99.90
46490;DHT22;32204;49.160;8.580;2023-08-24T08:48:25;26.60;99.90
46490;DHT22;32204;49.160;8.580;2023-08-24T08:50:51;26.50;99.90
46490;DHT22;32204;49.160;8.580;2023-08-24T08:53:22;26.80;99.90
46490;DHT22;32204;49.160;8.580;2023-08-24T08:55:48;27.00;99.90
46490;DHT22;32204;49.160;8.580;2023-08-24T08:58:15;26.90;99.90
46490;DHT22;32204;49.160;8.580;2023-08-24T09:00:40;27.00;99.90
46490;DHT22;32204;49.160;8.580;2023-08-24T09:03:06;26.90;99.90
46490;DHT22;32204;49.160;8.580;2023-08-24T09:05:32;26.80;99.90
46490;DHT22;32204;49.160;8.580;2023-08-24T09:07:57;26.80;99.90
46490;DHT22;32204;49.160;8.580;2023-08-24T09:10:24;26.90;99.90
46490;DHT22;32204;49.160;8.580;2023-08-24T09:12:50;27.20;99.90
46490;DHT22;32204;49.160;8.580;2023-08-24T09:15:23;27.60;99.90
46490;DHT22;32204;49.160;8.580;2023-08-24T09:17:49;27.70;99.90
46490;DHT22;32204;49.160;8.580;2023-08-24T09:20:14;27.70;99.90
46490;DHT22;32204;49.160;8.580;2023-08-24T09:22:40;27.60;99.90
46490;DHT22;32204;49.160;8.580;2023-08-24T09:25:09;27.60;99.90
46490;DHT22;32204;49.160;8.580;2023-08-24T09:27:35;27.70;99.90
46490;DHT22;32204;49.160;8.580;2023-08-24T09:30:00;27.90;99.90
46490;DHT22;32204;49.160;8.580;2023-08-24T09:32:32;28.20;99.90
46490;DHT22;32204;49.160;8.580;2023-08-24T09:35:06;28.30;99.90
46490;DHT22;32204;49.160;8.580;2023-08-24T09:37:33;28.50;99.90
46490;DHT22;32204;49.160;8.580;2023-08-24T09:40:03;28.30;99.90
46490;DHT22;32204;49.160;8.580;2023-08-24T09:42:36;28.30;99.90
46490;DHT22;32204;49.160;8.580;2023-08-24T09:45:02;28.40;99.90
46490;DHT22;32204;49.160;8.580;2023-08-24T09:47:29;28.30;99.90
46490;DHT22;32204;49.160;8.580;2023-08-24T09:49:55;28.50;99.90
46490;DHT22;32204;49.160;8.580;2023-08-24T09:52:20;28.60;99.90
46490;DHT22;32204;49.160;8.580;2023-08-24T09:54:46;28.80;99.90
46490;DHT22;32204;49.160;8.580;2023-08-24T09:57:12;28.90;99.90
46490;DHT22;32204;49.160;8.580;2023-08-24T09:59:38;29.10;99.90
46490;DHT22;32204;49.160;8.580;2023-08-24T10:02:04;29.30;99.90
46490;DHT22;32204;49.160;8.580;2023-08-24T10:04:35;29.50;99.90
46490;DHT22;32204;49.160;8.580;2023-08-24T10:07:06;29.60;99.90
46490;DHT22;32204;49.160;8.580;2023-08-24T10:09:38;29.60;99.90
46490;DHT22;32204;49.160;8.580;2023-08-24T10:12:04;29.70;99.90
46490;DHT22;32204;49.160;8.580;2023-08-24T10:14:31;29.70;75.10
46490;DHT22;32204;49.160;8.580;2023-08-24T10:16:57;29.60;62.50
46490;DHT22;32204;49.160;8.580;2023-08-24T10:19:23;29.70;61.70
46490;DHT22;32204;49.160;8.580;2023-08-24T10:21:49;29.70;55.60
46490;DHT22;32204;49.160;8.580;2023-08-24T10:24:17;29.60;56.40
46490;DHT22;32204;49.160;8.580;2023-08-24T10:26:46;29.60;47.70
46490;DHT22;32204;49.160;8.580;2023-08-24T10:29:12;29.70;56.30
46490;DHT22;32204;49.160;8.580;2023-08-24T10:31:39;29.90;51.20
46490;DHT22;32204;49.160;8.580;2023-08-24T10:34:05;30.00;48.60
46490;DHT22;32204;49.160;8.580;2023-08-24T10:36:31;30.20;44.40
46490;DHT22;32204;49.160;8.580;2023-08-24T10:38:57;30.40;52.10
46490;DHT22;32204;49.160;8.580;2023-08-24T10:41:28;30.50;46.20
46490;DHT22;32204;49.160;8.580;2023-08-24T10:44:03;30.40;29.60
46490;DHT22;32204;49.160;8.580;2023-08-24T10:46:29;30.60;25.40
46490;DHT22;32204;49.160;8.580;2023-08-24T10:48:59;30.60;25.90
46490;DHT22;32204;49.160;8.580;2023-08-24T10:51:25;30.60;26.90
46490;DHT22;32204;49.160;8.580;2023-08-24T10:53:58;30.60;16.80
46490;DHT22;32204;49.160;8.580;2023-08-24T10:56:29;30.70;20.60
46490;DHT22;32204;49.160;8.580;2023-08-24T10:59:14;30.80;13.40
46490;DHT22;32204;49.160;8.580;2023-08-24T11:01:41;30.80;12.80
46490;DHT22;32204;49.160;8.580;2023-08-24T11:04:07;30.90;11.30
46490;DHT22;32204;49.160;8.580;2023-08-24T11:06:50;30.90;10.70
46490;DHT22;32204;49.160;8.580;2023-08-24T11:09:15;30.80;7.50
46490;DHT22;32204;49.160;8.580;2023-08-24T11:11:42;31.10;9.40
46490;DHT22;32204;49.160;8.580;2023-08-24T11:14:14;31.30;10.70
46490;DHT22;32204;49.160;8.580;2023-08-24T11:16:41;31.40;4.80
46490;DHT22;32204;49.160;8.580;2023-08-24T11:19:07;31.30;3.90
46490;DHT22;32204;49.160;8.580;2023-08-24T11:21:33;31.30;3.50
46490;DHT22;32204;49.160;8.580;2023-08-24T11:24:00;31.30;5.50
46490;DHT22;32204;49.160;8.580;2023-08-24T11:26:25;31.30;5.40
46490;DHT22;32204;49.160;8.580;2023-08-24T11:28:54;31.40;3.00
46490;DHT22;32204;49.160;8.580;2023-08-24T11:31:20;31.70;4.10
46490;DHT22;32204;49.160;8.580;2023-08-24T11:33:46;32.00;3.00
46490;DHT22;32204;49.160;8.580;2023-08-24T11:36:11;32.10;1.00
46490;DHT22;32204;49.160;8.580;2023-08-24T11:38:38;32.00;1.00
46490;DHT22;32204;49.160;8.580;2023-08-24T11:41:11;32.00;1.00
46490;DHT22;32204;49.160;8.580;2023-08-24T11:43:37;32.00;1.00
46490;DHT22;32204;49.160;8.580;2023-08-24T11:46:02;32.10;1.00
46490;DHT22;32204;49.160;8.580;2023-08-24T11:48:28;32.10;1.00
46490;DHT22;32204;49.160;8.580;2023-08-24T11:50:55;32.10;2.30
46490;DHT22;32204;49.160;8.580;2023-08-24T11:53:21;32.30;1.00
46490;DHT22;32204;49.160;8.580;2023-08-24T11:55:48;32.20;1.00
46490;DHT22;32204;49.160;8.580;2023-08-24T11:58:14;32.20;1.00
46490;DHT22;32204;49.160;8.580;2023-08-24T12:00:40;32.30;1.00
46490;DHT22;32204;49.160;8.580;2023-08-24T12:03:06;32.30;1.00
46490;DHT22;32204;49.160;8.580;2023-08-24T12:05:31;32.50;1.00
46490;DHT22;32204;49.160;8.580;2023-08-24T12:07:57;32.80;1.00
46490;DHT22;32204;49.160;8.580;2023-08-24T12:10:22;32.80;1.00
46490;DHT22;32204;49.160;8.580;2023-08-24T12:12:48;32.90;1.00
46490;DHT22;32204;49.160;8.580;2023-08-24T12:15:17;32.80;1.00
46490;DHT22;32204;49.160;8.580;2023-08-24T12:17:45;32.70;1.00
46490;DHT22;32204;49.160;8.580;2023-08-24T12:20:20;32.50;1.00
46490;DHT22;32204;49.160;8.580;2023-08-24T12:22:49;32.70;1.00
46490;DHT22;32204;49.160;8.580;2023-08-24T12:25:16;33.00;1.00
46490;DHT22;32204;49.160;8.580;2023-08-24T12:27:42;32.80;1.00
46490;DHT22;32204;49.160;8.580;2023-08-24T12:30:07;32.60;1.00
46490;DHT22;32204;49.160;8.580;2023-08-24T12:35:14;32.40;1.00
46490;DHT22;32204;49.160;8.580;2023-08-24T12:37:39;32.50;1.00
46490;DHT22;32204;49.160;8.580;2023-08-24T12:40:05;32.40;1.00
46490;DHT22;32204;49.160;8.580;2023-08-24T12:42:31;32.40;1.00
46490;DHT22;32204;49.160;8.580;2023-08-24T12:44:57;32.60;1.00
46490;DHT22;32204;49.160;8.580;2023-08-24T12:47:22;32.70;1.00
46490;DHT22;32204;49.160;8.580;2023-08-24T12:49:47;32.90;1.00
46490;DHT22;32204;49.160;8.580;2023-08-24T12:52:13;32.90;1.00
46490;DHT22;32204;49.160;8.580;2023-08-24T12:54:39;32.90;1.00
46490;DHT22;32204;49.160;8.580;2023-08-24T12:57:04;32.90;1.00
46490;DHT22;32204;49.160;8.580;2023-08-24T12:59:30;32.90;1.00
46490;DHT22;32204;49.160;8.580;2023-08-24T13:01:55;32.90;1.00
46490;DHT22;32204;49.160;8.580;2023-08-24T13:04:21;33.00;1.00
46490;DHT22;32204;49.160;8.580;2023-08-24T13:06:46;33.00;1.00
46490;DHT22;32204;49.160;8.580;2023-08-24T13:09:12;33.00;1.00
46490;DHT22;32204;49.160;8.580;2023-08-24T13:11:39;33.00;1.00
46490;DHT22;32204;49.160;8.580;2023-08-24T13:14:04;33.10;1.00
46490;DHT22;32204;49.160;8.580;2023-08-24T13:16:30;33.30;1.00
46490;DHT22;32204;49.160;8.580;2023-08-24T13:18:55;33.40;1.00
46490;DHT22;32204;49.160;8.580;2023-08-24T13:21:21;33.40;1.00
46490;DHT22;32204;49.160;8.580;2023-08-24T13:23:47;33.60;1.00
46490;DHT22;32204;49.160;8.580;2023-08-24T13:26:16;33.50;1.00
46490;DHT22;32204;49.160;8.580;2023-08-24T13:28:42;33.40;1.00
46490;DHT22;32204;49.160;8.580;2023-08-24T13:31:07;33.50;1.00
46490;DHT22;32204;49.160;8.580;2023-08-24T13:33:33;33.60;1.00
46490;DHT22;32204;49.160;8.580;2023-08-24T13:35:59;33.50;1.00
46490;DHT22;32204;49.160;8.580;2023-08-24T13:38:24;33.40;1.00
46490;DHT22;32204;49.160;8.580;2023-08-24T13:40:50;33.40;1.00
46490;DHT22;32204;49.160;8.580;2023-08-24T13:43:15;33.30;1.00
46490;DHT22;32204;49.160;8.580;2023-08-24T13:45:41;33.30;1.00
46490;DHT22;32204;49.160;8.580;2023-08-24T13:48:06;33.30;1.00
46490;DHT22;32204;49.160;8.580;2023-08-24T13:50:33;33.30;1.00
46490;DHT22;32204;49.160;8.580;2023-08-24T13:52:58;33.10;1.00
46490;DHT22;32204;49.160;8.580;2023-08-24T13:55:24;32.90;1.00
46490;DHT22;32204;49.160;8.580;2023-08-24T13:57:49;32.80;1.00
46490;DHT22;32204;49.160;8.580;2023-08-24T14:00:15;32.70;1.00
46490;DHT22;32204;49.160;8.580;2023-08-24T14:02:41;32.80;1.00
46490;DHT22;32204;49.160;8.580;2023-08-24T14:05:07;32.80;1.00
46490;DHT22;32204;49.160;8.580;2023-08-24T14:07:34;32.80;1.00
46490;DHT22;32204;49.160;8.580;2023-08-24T14:10:01;32.80;1.00
46490;DHT22;32204;49.160;8.580;2023-08-24T14:12:26;32.70;1.00
46490;DHT22;32204;49.160;8.580;2023-08-24T14:14:52;32.60;1.00
46490;DHT22;32204;49.160;8.580;2023-08-24T14:17:17;32.50;1.00
46490;DHT22;32204;49.160;8.580;2023-08-24T14:19:42;32.20;1.00
46490;DHT22;32204;49.160;8.580;2023-08-24T14:22:08;31.90;1.00
46490;DHT22;32204;49.160;8.580;2023-08-24T14:24:34;31.70;1.00
46490;DHT22;32204;49.160;8.580;2023-08-24T14:27:00;31.60;1.00
46490;DHT22;32204;49.160;8.580;2023-08-24T14:29:25;31.40;2.80
46490;DHT22;32204;49.160;8.580;2023-08-24T14:31:51;31.10;30.00
46490;DHT22;32204;49.160;8.580;2023-08-24T14:34:16;30.70;89.00
46490;DHT22;32204;49.160;8.580;2023-08-24T14:36:42;29.50;1.00
46490;DHT22;32204;49.160;8.580;2023-08-24T14:39:07;27.00;87.00
46490;DHT22;32204;49.160;8.580;2023-08-24T14:41:33;26.30;1.00
46490;DHT22;32204;49.160;8.580;2023-08-24T14:43:58;26.00;1.00
46490;DHT22;32204;49.160;8.580;2023-08-24T14:46:23;25.80;1.00
46490;DHT22;32204;49.160;8.580;2023-08-24T14:48:49;25.70;35.90
46490;DHT22;32204;49.160;8.580;2023-08-24T14:51:14;25.70;99.90
46490;DHT22;32204;49.160;8.580;2023-08-24T14:53:40;25.50;99.90
46490;DHT22;32204;49.160;8.580;2023-08-24T14:56:06;25.40;99.90
46490;DHT22;32204;49.160;8.580;2023-08-24T14:58:31;25.20;1.00
46490;DHT22;32204;49.160;8.580;2023-08-24T15:00:57;25.00;99.90
46490;DHT22;32204;49.160;8.580;2023-08-24T15:03:23;25.00;1.00
46490;DHT22;32204;49.160;8.580;2023-08-24T15:05:58;25.10;44.20
46490;DHT22;32204;49.160;8.580;2023-08-24T15:08:24;25.40;1.00
46490;DHT22;32204;49.160;8.580;2023-08-24T15:10:50;25.50;1.00
46490;DHT22;32204;49.160;8.580;2023-08-24T15:13:15;25.70;1.00
46490;DHT22;32204;49.160;8.580;2023-08-24T15:15:41;25.80;99.90
46490;DHT22;32204;49.160;8.580;2023-08-24T15:18:06;25.70;99.90
46490;DHT22;32204;49.160;8.580;2023-08-24T15:20:32;25.60;99.90
46490;DHT22;32204;49.160;8.580;2023-08-24T15:23:00;25.50;1.00
46490;DHT22;32204;49.160;8.580;2023-08-24T15:25:26;25.40;99.90
46490;DHT22;32204;49.160;8.580;2023-08-24T15:27:51;25.60;1.00
46490;DHT22;32204;49.160;8.580;2023-08-24T15:30:17;25.70;99.90
46490;DHT22;32204;49.160;8.580;2023-08-24T15:32:42;25.90;1.00
46490;DHT22;32204;49.160;8.580;2023-08-24T15:35:08;26.10;99.90
46490;DHT22;32204;49.160;8.580;2023-08-24T15:37:33;26.30;1.00
46490;DHT22;32204;49.160;8.580;2023-08-24T15:39:59;26.40;1.00
46490;DHT22;32204;49.160;8.580;2023-08-24T15:42:25;26.60;1.00
46490;DHT22;32204;49.160;8.580;2023-08-24T15:44:51;26.70;69.70
46490;DHT22;32204;49.160;8.580;2023-08-24T15:47:16;26.80;51.80
46490;DHT22;32204;49.160;8.580;2023-08-24T15:49:42;26.80;99.90
46490;DHT22;32204;49.160;8.580;2023-08-24T15:52:07;26.80;1.00